sensor_id;sensor_type;location;lat;lon;timestamp;P1;durP1;ratioP1;P2;durP2;ratioP2
7162;SDS011;3623;47.098;15.446;2023-01-29T00:00:03;59.53;;;32.25;;
7162;SDS011;3623;47.098;15.446;2023-01-29T00:02:34;58.00;;;32.40;;
7162;SDS011;3623;47.098;15.446;2023-01-29T00:05:01;59.75;;;35.25;;
7162;SDS011;3623;47.098;15.446;2023-01-29T00:07:29;63.13;;;33.60;;
7162;SDS011;3623;47.098;15.446;2023-01-29T00:09:57;55.72;;;32.83;;
7162;SDS011;3623;47.098;15.446;2023-01-29T00:12:24;57.17;;;34.05;;
7162;SDS011;3623;47.098;15.446;2023-01-29T00:14:51;54.05;;;33.85;;
7162;SDS011;3623;47.098;15.446;2023-01-29T00:17:20;51.53;;;32.47;;
7162;SDS011;3623;47.098;15.446;2023-01-29T00:19:47;49.25;;;30.92;;
7162;SDS011;3623;47.098;15.446;2023-01-29T00:22:14;53.33;;;32.10;;
7162;SDS011;3623;47.098;15.446;2023-01-29T00:24:41;55.97;;;33.42;;
7162;SDS011;3623;47.098;15.446;2023-01-29T00:27:08;53.25;;;30.98;;
7162;SDS011;3623;47.098;15.446;2023-01-29T00:29:36;47.40;;;29.50;;
7162;SDS011;3623;47.098;15.446;2023-01-29T00:32:03;53.28;;;31.90;;
7162;SDS011;3623;47.098;15.446;2023-01-29T00:34:32;46.40;;;29.70;;
7162;SDS011;3623;47.098;15.446;2023-01-29T00:36:59;50.85;;;31.70;;
7162;SDS011;3623;47.098;15.446;2023-01-29T00:39:33;42.78;;;29.33;;
7162;SDS011;3623;47.098;15.446;2023-01-29T00:42:03;47.13;;;29.10;;
7162;SDS011;3623;47.098;15.446;2023-01-29T00:44:48;56.03;;;32.10;;
7162;SDS011;3623;47.098;15.446;2023-01-29T00:47:24;51.55;;;29.77;;
7162;SDS011;3623;47.098;15.446;2023-01-29T00:49:59;45.58;;;29.42;;
7162;SDS011;3623;47.098;15.446;2023-01-29T00:52:26;53.03;;;30.02;;
7162;SDS011;3623;47.098;15.446;2023-01-29T00:54:54;44.38;;;27.27;;
7162;SDS011;3623;47.098;15.446;2023-01-29T00:57:23;39.40;;;27.67;;
7162;SDS011;3623;47.098;15.446;2023-01-29T00:59:51;50.15;;;30.98;;
7162;SDS011;3623;47.098;15.446;2023-01-29T01:02:18;47.55;;;29.75;;
7162;SDS011;3623;47.098;15.446;2023-01-29T01:05:04;47.70;;;30.38;;
7162;SDS011;3623;47.098;15.446;2023-01-29T01:07:34;47.17;;;28.13;;
7162;SDS011;3623;47.098;15.446;2023-01-29T01:10:01;42.22;;;28.75;;
7162;SDS011;3623;47.098;15.446;2023-01-29T01:12:46;40.95;;;26.33;;
7162;SDS011;3623;47.098;15.446;2023-01-29T01:15:14;46.83;;;28.42;;
7162;SDS011;3623;47.098;15.446;2023-01-29T01:17:42;53.35;;;30.52;;
7162;SDS011;3623;47.098;15.446;2023-01-29T01:20:11;54.65;;;29.45;;
7162;SDS011;3623;47.098;15.446;2023-01-29T01:22:38;54.67;;;31.27;;
7162;SDS011;3623;47.098;15.446;2023-01-29T01:25:06;44.53;;;29.15;;
7162;SDS011;3623;47.098;15.446;2023-01-29T01:27:33;46.20;;;30.00;;
7162;SDS011;3623;47.098;15.446;2023-01-29T01:30:06;49.40;;;29.23;;
7162;SDS011;3623;47.098;15.446;2023-01-29T01:32:35;44.17;;;29.98;;
7162;SDS011;3623;47.098;15.446;2023-01-29T01:35:03;39.83;;;27.70;;
7162;SDS011;3623;47.098;15.446;2023-01-29T01:37:32;49.53;;;29.77;;
7162;SDS011;3623;47.098;15.446;2023-01-29T01:40:03;46.92;;;28.00;;
7162;SDS011;3623;47.098;15.446;2023-01-29T01:42:36;42.00;;;28.83;;
7162;SDS011;3623;47.098;15.446;2023-01-29T01:45:05;36.08;;;25.75;;
7162;SDS011;3623;47.098;15.446;2023-01-29T01:47:36;45.40;;;27.08;;
7162;SDS011;3623;47.098;15.446;2023-01-29T01:50:08;40.35;;;26.00;;
7162;SDS011;3623;47.098;15.446;2023-01-29T01:52:41;40.85;;;26.55;;
7162;SDS011;3623;47.098;15.446;2023-01-29T01:55:13;43.25;;;28.38;;
7162;SDS011;3623;47.098;15.446;2023-01-29T01:57:43;42.53;;;26.45;;
7162;SDS011;3623;47.098;15.446;2023-01-29T02:00:14;41.45;;;27.25;;
7162;SDS011;3623;47.098;15.446;2023-01-29T02:02:43;39.45;;;26.38;;
7162;SDS011;3623;47.098;15.446;2023-01-29T02:05:29;41.03;;;26.75;;
7162;SDS011;3623;47.098;15.446;2023-01-29T02:08:18;37.08;;;27.08;;
7162;SDS011;3623;47.098;15.446;2023-01-29T02:11:12;46.85;;;26.98;;
7162;SDS011;3623;47.098;15.446;2023-01-29T02:13:39;49.63;;;28.48;;
7162;SDS011;3623;47.098;15.446;2023-01-29T02:16:07;43.38;;;28.23;;
7162;SDS011;3623;47.098;15.446;2023-01-29T02:18:34;41.80;;;28.63;;
7162;SDS011;3623;47.098;15.446;2023-01-29T02:21:10;44.78;;;30.02;;
7162;SDS011;3623;47.098;15.446;2023-01-29T02:27:09;39.10;;;25.40;;
7162;SDS011;3623;47.098;15.446;2023-01-29T02:29:48;43.65;;;27.48;;
7162;SDS011;3623;47.098;15.446;2023-01-29T02:32:25;42.85;;;27.55;;
7162;SDS011;3623;47.098;15.446;2023-01-29T02:35:05;40.80;;;28.05;;
7162;SDS011;3623;47.098;15.446;2023-01-29T02:37:56;43.45;;;27.33;;
7162;SDS011;3623;47.098;15.446;2023-01-29T02:40:34;43.30;;;28.85;;
7162;SDS011;3623;47.098;15.446;2023-01-29T02:43:07;44.83;;;28.55;;
7162;SDS011;3623;47.098;15.446;2023-01-29T02:45:51;34.45;;;25.27;;
7162;SDS011;3623;47.098;15.446;2023-01-29T02:48:25;37.15;;;23.70;;
7162;SDS011;3623;47.098;15.446;2023-01-29T02:51:03;37.50;;;26.55;;
7162;SDS011;3623;47.098;15.446;2023-01-29T02:53:34;36.10;;;25.58;;
7162;SDS011;3623;47.098;15.446;2023-01-29T02:56:08;37.55;;;26.92;;
7162;SDS011;3623;47.098;15.446;2023-01-29T02:58:39;37.78;;;26.52;;
7162;SDS011;3623;47.098;15.446;2023-01-29T03:01:10;42.33;;;28.90;;
7162;SDS011;3623;47.098;15.446;2023-01-29T03:03:41;40.13;;;26.98;;
7162;SDS011;3623;47.098;15.446;2023-01-29T03:06:11;40.20;;;26.45;;
7162;SDS011;3623;47.098;15.446;2023-01-29T03:08:47;41.33;;;26.17;;
7162;SDS011;3623;47.098;15.446;2023-01-29T03:11:18;38.00;;;25.50;;
7162;SDS011;3623;47.098;15.446;2023-01-29T03:13:46;42.40;;;25.80;;
7162;SDS011;3623;47.098;15.446;2023-01-29T03:16:20;37.40;;;24.38;;
7162;SDS011;3623;47.098;15.446;2023-01-29T03:18:53;38.03;;;25.20;;
7162;SDS011;3623;47.098;15.446;2023-01-29T03:21:26;42.95;;;26.65;;
7162;SDS011;3623;47.098;15.446;2023-01-29T03:24:15;41.60;;;26.70;;
7162;SDS011;3623;47.098;15.446;2023-01-29T03:27:04;38.30;;;26.17;;
7162;SDS011;3623;47.098;15.446;2023-01-29T03:29:53;38.88;;;24.85;;
7162;SDS011;3623;47.098;15.446;2023-01-29T03:32:40;40.70;;;26.17;;
7162;SDS011;3623;47.098;15.446;2023-01-29T03:35:08;43.85;;;28.30;;
7162;SDS011;3623;47.098;15.446;2023-01-29T03:37:37;37.67;;;25.92;;
7162;SDS011;3623;47.098;15.446;2023-01-29T03:40:10;39.03;;;26.20;;
7162;SDS011;3623;47.098;15.446;2023-01-29T03:42:43;36.13;;;24.35;;
7162;SDS011;3623;47.098;15.446;2023-01-29T03:45:16;32.38;;;23.70;;
7162;SDS011;3623;47.098;15.446;2023-01-29T03:47:50;43.53;;;25.77;;
7162;SDS011;3623;47.098;15.446;2023-01-29T03:50:30;40.42;;;25.90;;
7162;SDS011;3623;47.098;15.446;2023-01-29T03:53:03;40.58;;;26.67;;
7162;SDS011;3623;47.098;15.446;2023-01-29T03:55:36;41.92;;;26.20;;
7162;SDS011;3623;47.098;15.446;2023-01-29T03:58:12;38.30;;;26.65;;
7162;SDS011;3623;47.098;15.446;2023-01-29T04:00:48;36.17;;;25.08;;
7162;SDS011;3623;47.098;15.446;2023-01-29T04:03:22;40.85;;;25.50;;
7162;SDS011;3623;47.098;15.446;2023-01-29T04:05:53;39.15;;;24.98;;
7162;SDS011;3623;47.098;15.446;2023-01-29T04:08:30;33.63;;;23.02;;
7162;SDS011;3623;47.098;15.446;2023-01-29T04:11:02;38.20;;;24.33;;
7162;SDS011;3623;47.098;15.446;2023-01-29T04:13:34;35.50;;;24.88;;
7162;SDS011;3623;47.098;15.446;2023-01-29T04:16:03;30.58;;;23.15;;
7162;SDS011;3623;47.098;15.446;2023-01-29T04:18:34;35.58;;;22.20;;
7162;SDS011;3623;47.098;15.446;2023-01-29T04:21:03;38.13;;;24.42;;
7162;SDS011;3623;47.098;15.446;2023-01-29T04:23:32;37.47;;;24.27;;
7162;SDS011;3623;47.098;15.446;2023-01-29T04:26:04;37.42;;;25.75;;
7162;SDS011;3623;47.098;15.446;2023-01-29T04:28:50;41.63;;;25.42;;
7162;SDS011;3623;47.098;15.446;2023-01-29T04:31:25;41.50;;;27.25;;
7162;SDS011;3623;47.098;15.446;2023-01-29T04:34:01;40.42;;;24.38;;
7162;SDS011;3623;47.098;15.446;2023-01-29T04:36:40;37.88;;;25.08;;
7162;SDS011;3623;47.098;15.446;2023-01-29T04:39:14;42.22;;;25.90;;
7162;SDS011;3623;47.098;15.446;2023-01-29T04:41:46;45.25;;;24.52;;
7162;SDS011;3623;47.098;15.446;2023-01-29T04:44:19;34.95;;;23.88;;
7162;SDS011;3623;47.098;15.446;2023-01-29T04:46:56;44.63;;;24.85;;
7162;SDS011;3623;47.098;15.446;2023-01-29T04:49:33;34.83;;;23.00;;
7162;SDS011;3623;47.098;15.446;2023-01-29T04:52:07;36.28;;;22.42;;
7162;SDS011;3623;47.098;15.446;2023-01-29T04:54:43;38.72;;;24.20;;
7162;SDS011;3623;47.098;15.446;2023-01-29T04:57:21;32.65;;;20.85;;
7162;SDS011;3623;47.098;15.446;2023-01-29T04:59:54;33.72;;;23.30;;
7162;SDS011;3623;47.098;15.446;2023-01-29T05:02:25;29.52;;;19.85;;
7162;SDS011;3623;47.098;15.446;2023-01-29T05:04:55;31.58;;;19.80;;
7162;SDS011;3623;47.098;15.446;2023-01-29T05:07:24;30.75;;;21.52;;
7162;SDS011;3623;47.098;15.446;2023-01-29T05:09:54;31.88;;;22.33;;
7162;SDS011;3623;47.098;15.446;2023-01-29T05:12:22;27.85;;;19.55;;
7162;SDS011;3623;47.098;15.446;2023-01-29T05:14:51;35.13;;;21.60;;
7162;SDS011;3623;47.098;15.446;2023-01-29T05:17:20;39.33;;;24.23;;
7162;SDS011;3623;47.098;15.446;2023-01-29T05:19:47;41.85;;;27.33;;
7162;SDS011;3623;47.098;15.446;2023-01-29T05:22:16;52.85;;;32.47;;
7162;SDS011;3623;47.098;15.446;2023-01-29T05:24:47;53.45;;;34.22;;
7162;SDS011;3623;47.098;15.446;2023-01-29T05:27:15;41.47;;;27.23;;
7162;SDS011;3623;47.098;15.446;2023-01-29T05:30:03;49.13;;;30.05;;
7162;SDS011;3623;47.098;15.446;2023-01-29T05:32:31;46.50;;;31.55;;
7162;SDS011;3623;47.098;15.446;2023-01-29T05:34:58;39.15;;;29.13;;
7162;SDS011;3623;47.098;15.446;2023-01-29T05:37:27;43.88;;;29.83;;
7162;SDS011;3623;47.098;15.446;2023-01-29T05:39:54;39.92;;;29.48;;
7162;SDS011;3623;47.098;15.446;2023-01-29T05:42:21;37.97;;;25.52;;
7162;SDS011;3623;47.098;15.446;2023-01-29T05:44:48;37.13;;;23.05;;
7162;SDS011;3623;47.098;15.446;2023-01-29T05:47:17;41.97;;;22.90;;
7162;SDS011;3623;47.098;15.446;2023-01-29T05:49:45;36.15;;;25.40;;
7162;SDS011;3623;47.098;15.446;2023-01-29T05:52:13;37.28;;;23.60;;
7162;SDS011;3623;47.098;15.446;2023-01-29T05:54:41;40.28;;;25.23;;
7162;SDS011;3623;47.098;15.446;2023-01-29T05:57:08;32.60;;;23.33;;
7162;SDS011;3623;47.098;15.446;2023-01-29T05:59:35;35.35;;;23.63;;
7162;SDS011;3623;47.098;15.446;2023-01-29T06:02:02;37.42;;;23.52;;
7162;SDS011;3623;47.098;15.446;2023-01-29T06:04:30;39.20;;;24.27;;
7162;SDS011;3623;47.098;15.446;2023-01-29T06:06:57;33.00;;;22.83;;
7162;SDS011;3623;47.098;15.446;2023-01-29T06:09:25;33.13;;;20.55;;
7162;SDS011;3623;47.098;15.446;2023-01-29T06:11:53;33.47;;;21.60;;
7162;SDS011;3623;47.098;15.446;2023-01-29T06:14:20;38.85;;;26.80;;
7162;SDS011;3623;47.098;15.446;2023-01-29T06:16:47;40.78;;;26.55;;
7162;SDS011;3623;47.098;15.446;2023-01-29T06:19:15;42.67;;;27.52;;
7162;SDS011;3623;47.098;15.446;2023-01-29T06:21:42;46.67;;;28.65;;
7162;SDS011;3623;47.098;15.446;2023-01-29T06:24:10;31.95;;;25.13;;
7162;SDS011;3623;47.098;15.446;2023-01-29T06:26:37;40.60;;;26.50;;
7162;SDS011;3623;47.098;15.446;2023-01-29T06:29:06;42.85;;;28.23;;
7162;SDS011;3623;47.098;15.446;2023-01-29T06:31:33;45.35;;;27.70;;
7162;SDS011;3623;47.098;15.446;2023-01-29T06:34:00;43.45;;;27.98;;
7162;SDS011;3623;47.098;15.446;2023-01-29T06:36:28;47.65;;;28.90;;
7162;SDS011;3623;47.098;15.446;2023-01-29T06:38:55;42.65;;;28.60;;
7162;SDS011;3623;47.098;15.446;2023-01-29T06:41:22;42.28;;;24.48;;
7162;SDS011;3623;47.098;15.446;2023-01-29T06:43:50;40.80;;;24.13;;
7162;SDS011;3623;47.098;15.446;2023-01-29T06:46:19;27.85;;;21.55;;
7162;SDS011;3623;47.098;15.446;2023-01-29T06:48:46;33.88;;;21.42;;
7162;SDS011;3623;47.098;15.446;2023-01-29T06:51:14;27.52;;;21.73;;
7162;SDS011;3623;47.098;15.446;2023-01-29T06:53:42;27.10;;;20.70;;
7162;SDS011;3623;47.098;15.446;2023-01-29T06:56:09;34.65;;;22.77;;
7162;SDS011;3623;47.098;15.446;2023-01-29T06:58:36;38.33;;;22.25;;
7162;SDS011;3623;47.098;15.446;2023-01-29T07:01:04;40.17;;;24.27;;
7162;SDS011;3623;47.098;15.446;2023-01-29T07:03:34;40.95;;;22.02;;
7162;SDS011;3623;47.098;15.446;2023-01-29T07:06:01;35.42;;;24.05;;
7162;SDS011;3623;47.098;15.446;2023-01-29T07:08:29;37.42;;;24.77;;
7162;SDS011;3623;47.098;15.446;2023-01-29T07:11:00;31.88;;;21.15;;
7162;SDS011;3623;47.098;15.446;2023-01-29T07:13:28;34.83;;;21.77;;
7162;SDS011;3623;47.098;15.446;2023-01-29T07:15:56;38.35;;;23.85;;
7162;SDS011;3623;47.098;15.446;2023-01-29T07:18:24;30.17;;;22.25;;
7162;SDS011;3623;47.098;15.446;2023-01-29T07:20:52;33.90;;;22.95;;
7162;SDS011;3623;47.098;15.446;2023-01-29T07:23:20;28.17;;;19.33;;
7162;SDS011;3623;47.098;15.446;2023-01-29T07:25:47;35.85;;;19.58;;
7162;SDS011;3623;47.098;15.446;2023-01-29T07:28:15;27.42;;;18.58;;
7162;SDS011;3623;47.098;15.446;2023-01-29T07:30:42;26.02;;;17.98;;
7162;SDS011;3623;47.098;15.446;2023-01-29T07:33:09;28.88;;;18.73;;
7162;SDS011;3623;47.098;15.446;2023-01-29T07:35:37;27.90;;;19.02;;
7162;SDS011;3623;47.098;15.446;2023-01-29T07:38:07;30.35;;;19.90;;
7162;SDS011;3623;47.098;15.446;2023-01-29T07:40:35;33.92;;;20.42;;
7162;SDS011;3623;47.098;15.446;2023-01-29T07:43:03;30.40;;;20.05;;
7162;SDS011;3623;47.098;15.446;2023-01-29T07:45:32;27.23;;;18.95;;
7162;SDS011;3623;47.098;15.446;2023-01-29T07:48:00;27.30;;;19.00;;
7162;SDS011;3623;47.098;15.446;2023-01-29T07:50:29;31.63;;;20.25;;
7162;SDS011;3623;47.098;15.446;2023-01-29T07:52:57;29.75;;;20.15;;
7162;SDS011;3623;47.098;15.446;2023-01-29T07:55:26;27.40;;;18.00;;
7162;SDS011;3623;47.098;15.446;2023-01-29T07:57:56;28.83;;;18.20;;
7162;SDS011;3623;47.098;15.446;2023-01-29T08:00:24;24.70;;;17.30;;
7162;SDS011;3623;47.098;15.446;2023-01-29T08:02:52;24.92;;;17.83;;
7162;SDS011;3623;47.098;15.446;2023-01-29T08:05:19;23.77;;;16.05;;
7162;SDS011;3623;47.098;15.446;2023-01-29T08:07:51;25.20;;;17.33;;
7162;SDS011;3623;47.098;15.446;2023-01-29T08:10:19;24.33;;;16.55;;
7162;SDS011;3623;47.098;15.446;2023-01-29T08:12:47;24.98;;;17.50;;
7162;SDS011;3623;47.098;15.446;2023-01-29T08:15:20;24.50;;;17.13;;
7162;SDS011;3623;47.098;15.446;2023-01-29T08:17:47;19.73;;;15.45;;
7162;SDS011;3623;47.098;15.446;2023-01-29T08:20:14;23.08;;;17.10;;
7162;SDS011;3623;47.098;15.446;2023-01-29T08:22:42;23.50;;;18.20;;
7162;SDS011;3623;47.098;15.446;2023-01-29T08:25:09;25.92;;;19.13;;
7162;SDS011;3623;47.098;15.446;2023-01-29T08:27:36;24.45;;;17.13;;
7162;SDS011;3623;47.098;15.446;2023-01-29T08:30:07;20.77;;;16.65;;
7162;SDS011;3623;47.098;15.446;2023-01-29T08:32:35;24.63;;;15.68;;
7162;SDS011;3623;47.098;15.446;2023-01-29T08:35:03;22.83;;;16.75;;
7162;SDS011;3623;47.098;15.446;2023-01-29T08:37:30;23.25;;;15.35;;
7162;SDS011;3623;47.098;15.446;2023-01-29T08:39:57;21.00;;;15.65;;
7162;SDS011;3623;47.098;15.446;2023-01-29T08:42:24;23.35;;;15.15;;
7162;SDS011;3623;47.098;15.446;2023-01-29T08:44:51;23.40;;;15.45;;
7162;SDS011;3623;47.098;15.446;2023-01-29T08:47:20;18.77;;;15.15;;
7162;SDS011;3623;47.098;15.446;2023-01-29T08:49:47;22.77;;;16.20;;
7162;SDS011;3623;47.098;15.446;2023-01-29T08:52:14;20.95;;;15.05;;
7162;SDS011;3623;47.098;15.446;2023-01-29T08:54:41;19.45;;;15.60;;
7162;SDS011;3623;47.098;15.446;2023-01-29T08:57:08;22.38;;;14.65;;
7162;SDS011;3623;47.098;15.446;2023-01-29T08:59:36;23.98;;;15.68;;
7162;SDS011;3623;47.098;15.446;2023-01-29T09:02:03;22.42;;;15.90;;
7162;SDS011;3623;47.098;15.446;2023-01-29T09:04:32;17.75;;;14.13;;
7162;SDS011;3623;47.098;15.446;2023-01-29T09:06:59;22.30;;;14.68;;
7162;SDS011;3623;47.098;15.446;2023-01-29T09:09:26;17.98;;;15.02;;
7162;SDS011;3623;47.098;15.446;2023-01-29T09:11:53;18.85;;;14.10;;
7162;SDS011;3623;47.098;15.446;2023-01-29T09:14:20;21.30;;;15.65;;
7162;SDS011;3623;47.098;15.446;2023-01-29T09:16:47;16.25;;;13.13;;
7162;SDS011;3623;47.098;15.446;2023-01-29T09:19:14;14.23;;;12.60;;
7162;SDS011;3623;47.098;15.446;2023-01-29T09:21:43;16.08;;;12.10;;
7162;SDS011;3623;47.098;15.446;2023-01-29T09:24:10;14.13;;;12.52;;
7162;SDS011;3623;47.098;15.446;2023-01-29T09:26:37;14.38;;;11.57;;
7162;SDS011;3623;47.098;15.446;2023-01-29T09:29:04;15.57;;;11.10;;
7162;SDS011;3623;47.098;15.446;2023-01-29T09:31:33;18.25;;;14.07;;
7162;SDS011;3623;47.098;15.446;2023-01-29T09:34:00;17.85;;;12.55;;
7162;SDS011;3623;47.098;15.446;2023-01-29T09:36:27;16.88;;;13.60;;
7162;SDS011;3623;47.098;15.446;2023-01-29T09:38:55;15.88;;;12.82;;
7162;SDS011;3623;47.098;15.446;2023-01-29T09:41:26;20.17;;;12.50;;
7162;SDS011;3623;47.098;15.446;2023-01-29T09:44:09;16.42;;;10.90;;
7162;SDS011;3623;47.098;15.446;2023-01-29T09:46:44;13.85;;;11.85;;
7162;SDS011;3623;47.098;15.446;2023-01-29T09:49:21;14.32;;;10.85;;
7162;SDS011;3623;47.098;15.446;2023-01-29T09:51:52;13.20;;;11.30;;
7162;SDS011;3623;47.098;15.446;2023-01-29T09:54:26;13.38;;;10.32;;
7162;SDS011;3623;47.098;15.446;2023-01-29T09:56:56;11.85;;;10.48;;
7162;SDS011;3623;47.098;15.446;2023-01-29T09:59:24;13.05;;;10.38;;
7162;SDS011;3623;47.098;15.446;2023-01-29T10:01:58;11.32;;;10.13;;
7162;SDS011;3623;47.098;15.446;2023-01-29T10:04:44;15.80;;;10.32;;
7162;SDS011;3623;47.098;15.446;2023-01-29T10:10:25;11.23;;;9.55;;
7162;SDS011;3623;47.098;15.446;2023-01-29T10:13:05;13.40;;;10.85;;
7162;SDS011;3623;47.098;15.446;2023-01-29T10:15:49;13.65;;;11.60;;
7162;SDS011;3623;47.098;15.446;2023-01-29T10:18:36;12.77;;;10.88;;
7162;SDS011;3623;47.098;15.446;2023-01-29T10:21:26;13.43;;;12.02;;
7162;SDS011;3623;47.098;15.446;2023-01-29T10:24:04;11.23;;;10.13;;
7162;SDS011;3623;47.098;15.446;2023-01-29T10:26:43;12.27;;;9.93;;
7162;SDS011;3623;47.098;15.446;2023-01-29T10:29:12;11.90;;;10.60;;
7162;SDS011;3623;47.098;15.446;2023-01-29T10:31:44;12.18;;;10.25;;
7162;SDS011;3623;47.098;15.446;2023-01-29T10:34:18;10.65;;;8.82;;
7162;SDS011;3623;47.098;15.446;2023-01-29T10:36:53;17.67;;;9.30;;
7162;SDS011;3623;47.098;15.446;2023-01-29T10:39:21;15.65;;;10.02;;
7162;SDS011;3623;47.098;15.446;2023-01-29T10:41:59;10.73;;;9.30;;
7162;SDS011;3623;47.098;15.446;2023-01-29T10:44:35;13.63;;;10.93;;
7162;SDS011;3623;47.098;15.446;2023-01-29T10:47:22;12.50;;;10.25;;
7162;SDS011;3623;47.098;15.446;2023-01-29T10:50:17;12.88;;;10.25;;
7162;SDS011;3623;47.098;15.446;2023-01-29T10:52:56;12.75;;;11.45;;
7162;SDS011;3623;47.098;15.446;2023-01-29T10:55:45;12.02;;;10.32;;
7162;SDS011;3623;47.098;15.446;2023-01-29T10:58:26;10.18;;;9.15;;
7162;SDS011;3623;47.098;15.446;2023-01-29T11:01:00;11.90;;;9.70;;
7162;SDS011;3623;47.098;15.446;2023-01-29T11:03:29;11.65;;;10.15;;
7162;SDS011;3623;47.098;15.446;2023-01-29T11:05:59;12.30;;;9.90;;
7162;SDS011;3623;47.098;15.446;2023-01-29T11:08:33;15.30;;;10.20;;
7162;SDS011;3623;47.098;15.446;2023-01-29T11:11:06;12.60;;;10.52;;
7162;SDS011;3623;47.098;15.446;2023-01-29T11:13:37;14.93;;;10.30;;
7162;SDS011;3623;47.098;15.446;2023-01-29T11:16:08;10.57;;;9.15;;
7162;SDS011;3623;47.098;15.446;2023-01-29T11:18:54;13.20;;;10.65;;
7162;SDS011;3623;47.098;15.446;2023-01-29T11:21:24;14.10;;;11.18;;
7162;SDS011;3623;47.098;15.446;2023-01-29T11:24:03;14.55;;;11.45;;
7162;SDS011;3623;47.098;15.446;2023-01-29T11:26:38;11.52;;;10.32;;
7162;SDS011;3623;47.098;15.446;2023-01-29T11:31:55;14.02;;;12.57;;
7162;SDS011;3623;47.098;15.446;2023-01-29T11:34:24;14.48;;;12.70;;
7162;SDS011;3623;47.098;15.446;2023-01-29T11:36:55;17.48;;;12.73;;
7162;SDS011;3623;47.098;15.446;2023-01-29T11:39:24;16.50;;;12.95;;
7162;SDS011;3623;47.098;15.446;2023-01-29T11:41:53;14.48;;;12.50;;
7162;SDS011;3623;47.098;15.446;2023-01-29T11:44:28;16.17;;;12.73;;
7162;SDS011;3623;47.098;15.446;2023-01-29T11:46:58;15.20;;;13.55;;
7162;SDS011;3623;47.098;15.446;2023-01-29T11:49:43;14.57;;;11.93;;
7162;SDS011;3623;47.098;15.446;2023-01-29T11:52:12;16.35;;;12.23;;
7162;SDS011;3623;47.098;15.446;2023-01-29T11:54:43;12.95;;;11.70;;
7162;SDS011;3623;47.098;15.446;2023-01-29T12:00:03;13.82;;;11.38;;
7162;SDS011;3623;47.098;15.446;2023-01-29T12:02:33;13.57;;;11.45;;
7162;SDS011;3623;47.098;15.446;2023-01-29T12:05:04;14.80;;;11.00;;
7162;SDS011;3623;47.098;15.446;2023-01-29T12:07:40;17.08;;;13.07;;
7162;SDS011;3623;47.098;15.446;2023-01-29T12:10:27;15.65;;;13.63;;
7162;SDS011;3623;47.098;15.446;2023-01-29T12:13:02;15.65;;;12.65;;
7162;SDS011;3623;47.098;15.446;2023-01-29T12:15:32;17.63;;;13.93;;
7162;SDS011;3623;47.098;15.446;2023-01-29T12:18:02;15.68;;;13.10;;
7162;SDS011;3623;47.098;15.446;2023-01-29T12:20:37;16.48;;;13.15;;
7162;SDS011;3623;47.098;15.446;2023-01-29T12:23:12;14.55;;;11.77;;
7162;SDS011;3623;47.098;15.446;2023-01-29T12:25:49;17.13;;;13.60;;
7162;SDS011;3623;47.098;15.446;2023-01-29T12:28:30;18.58;;;14.07;;
7162;SDS011;3623;47.098;15.446;2023-01-29T12:31:10;20.13;;;13.93;;
7162;SDS011;3623;47.098;15.446;2023-01-29T12:33:47;16.40;;;13.85;;
7162;SDS011;3623;47.098;15.446;2023-01-29T12:36:20;15.48;;;13.35;;
7162;SDS011;3623;47.098;15.446;2023-01-29T12:38:52;17.95;;;14.20;;
7162;SDS011;3623;47.098;15.446;2023-01-29T12:41:27;16.85;;;14.73;;
7162;SDS011;3623;47.098;15.446;2023-01-29T12:43:59;15.32;;;13.40;;
7162;SDS011;3623;47.098;15.446;2023-01-29T12:46:33;15.68;;;11.95;;
7162;SDS011;3623;47.098;15.446;2023-01-29T12:49:13;17.02;;;13.38;;
7162;SDS011;3623;47.098;15.446;2023-01-29T12:51:46;22.05;;;16.48;;
7162;SDS011;3623;47.098;15.446;2023-01-29T12:54:21;16.55;;;13.18;;
7162;SDS011;3623;47.098;15.446;2023-01-29T12:56:54;14.32;;;12.18;;
7162;SDS011;3623;47.098;15.446;2023-01-29T12:59:27;16.13;;;13.98;;
7162;SDS011;3623;47.098;15.446;2023-01-29T13:01:59;14.68;;;11.70;;
7162;SDS011;3623;47.098;15.446;2023-01-29T13:04:35;15.73;;;12.77;;
7162;SDS011;3623;47.098;15.446;2023-01-29T13:07:08;17.42;;;13.98;;
7162;SDS011;3623;47.098;15.446;2023-01-29T13:09:38;15.05;;;12.50;;
7162;SDS011;3623;47.098;15.446;2023-01-29T13:12:11;16.98;;;12.35;;
7162;SDS011;3623;47.098;15.446;2023-01-29T13:14:42;14.27;;;12.68;;
7162;SDS011;3623;47.098;15.446;2023-01-29T13:17:15;18.35;;;12.93;;
7162;SDS011;3623;47.098;15.446;2023-01-29T13:19:48;18.95;;;14.38;;
7162;SDS011;3623;47.098;15.446;2023-01-29T13:22:19;17.58;;;13.73;;
7162;SDS011;3623;47.098;15.446;2023-01-29T13:24:49;16.17;;;14.23;;
7162;SDS011;3623;47.098;15.446;2023-01-29T13:27:24;17.38;;;13.20;;
7162;SDS011;3623;47.098;15.446;2023-01-29T13:29:55;17.13;;;13.00;;
7162;SDS011;3623;47.098;15.446;2023-01-29T13:32:25;16.52;;;13.60;;
7162;SDS011;3623;47.098;15.446;2023-01-29T13:34:54;16.58;;;13.55;;
7162;SDS011;3623;47.098;15.446;2023-01-29T13:37:26;15.38;;;13.73;;
7162;SDS011;3623;47.098;15.446;2023-01-29T13:39:56;20.27;;;14.95;;
7162;SDS011;3623;47.098;15.446;2023-01-29T13:42:32;14.35;;;12.20;;
7162;SDS011;3623;47.098;15.446;2023-01-29T13:45:07;16.80;;;13.63;;
7162;SDS011;3623;47.098;15.446;2023-01-29T13:47:45;18.38;;;14.30;;
7162;SDS011;3623;47.098;15.446;2023-01-29T13:50:17;17.42;;;13.50;;
7162;SDS011;3623;47.098;15.446;2023-01-29T13:52:51;20.55;;;14.18;;
7162;SDS011;3623;47.098;15.446;2023-01-29T13:55:25;19.80;;;14.38;;
7162;SDS011;3623;47.098;15.446;2023-01-29T13:57:55;20.02;;;13.77;;
7162;SDS011;3623;47.098;15.446;2023-01-29T14:11:59;16.35;;;13.05;;
7162;SDS011;3623;47.098;15.446;2023-01-29T14:17:16;14.65;;;12.65;;
7162;SDS011;3623;47.098;15.446;2023-01-29T14:19:47;16.70;;;12.85;;
7162;SDS011;3623;47.098;15.446;2023-01-29T14:22:18;16.20;;;12.30;;
7162;SDS011;3623;47.098;15.446;2023-01-29T14:24:47;20.00;;;15.20;;
7162;SDS011;3623;47.098;15.446;2023-01-29T14:27:19;16.92;;;12.25;;
7162;SDS011;3623;47.098;15.446;2023-01-29T14:29:49;15.40;;;12.90;;
7162;SDS011;3623;47.098;15.446;2023-01-29T14:32:22;19.75;;;13.57;;
7162;SDS011;3623;47.098;15.446;2023-01-29T14:34:53;17.10;;;12.80;;
7162;SDS011;3623;47.098;15.446;2023-01-29T14:37:25;16.27;;;12.85;;
7162;SDS011;3623;47.098;15.446;2023-01-29T14:39:58;14.35;;;12.85;;
7162;SDS011;3623;47.098;15.446;2023-01-29T14:42:42;14.13;;;11.70;;
7162;SDS011;3623;47.098;15.446;2023-01-29T14:45:20;16.23;;;12.75;;
7162;SDS011;3623;47.098;15.446;2023-01-29T14:48:02;16.27;;;14.10;;
7162;SDS011;3623;47.098;15.446;2023-01-29T14:50:47;14.85;;;12.88;;
7162;SDS011;3623;47.098;15.446;2023-01-29T14:53:27;17.52;;;12.88;;
7162;SDS011;3623;47.098;15.446;2023-01-29T14:56:00;19.02;;;14.10;;
7162;SDS011;3623;47.098;15.446;2023-01-29T14:58:33;19.67;;;13.15;;
7162;SDS011;3623;47.098;15.446;2023-01-29T15:01:03;17.15;;;13.95;;
7162;SDS011;3623;47.098;15.446;2023-01-29T15:03:42;15.80;;;12.65;;
7162;SDS011;3623;47.098;15.446;2023-01-29T15:06:18;15.98;;;11.63;;
7162;SDS011;3623;47.098;15.446;2023-01-29T15:08:52;16.63;;;13.45;;
7162;SDS011;3623;47.098;15.446;2023-01-29T15:11:29;14.98;;;12.15;;
7162;SDS011;3623;47.098;15.446;2023-01-29T15:14:12;14.77;;;12.70;;
7162;SDS011;3623;47.098;15.446;2023-01-29T15:16:50;17.33;;;14.30;;
7162;SDS011;3623;47.098;15.446;2023-01-29T15:19:28;19.45;;;14.20;;
7162;SDS011;3623;47.098;15.446;2023-01-29T15:25:00;17.05;;;13.10;;
7162;SDS011;3623;47.098;15.446;2023-01-29T15:27:29;18.65;;;13.63;;
7162;SDS011;3623;47.098;15.446;2023-01-29T15:29:57;18.52;;;13.80;;
7162;SDS011;3623;47.098;15.446;2023-01-29T15:32:27;16.42;;;13.15;;